Time;durP1;ratioP1;P1;durP2;ratioP2;P2;SDS_P1;SDS_P2;PMS_P1;PMS_P2;Temp;Humidity;BMP_temperature;BMP_pressure;BME280_temperature;BME280_humidity;BME280_pressure;Samples;Min_cycle;Max_cycle;Signal;HPM_P1;HPM_P2
2022/03/02 00:01:19;;;;;;;;;;;7.10;99.90;;;;;;5091833;28;19915;-78
2022/03/02 00:03:45;;;;;;;;;;;7.20;99.90;;;;;;5092486;28;19912;-77
2022/03/02 00:06:11;;;;;;;;;;;7.30;99.90;;;;;;5092012;28;20368;-75
2022/03/02 00:08:36;;;;;;;;;;;7.20;99.90;;;;;;5092713;28;19914;-78
2022/03/02 00:11:03;;;;;;;;;;;7.30;99.90;;;;;;5091151;28;19991;-78
2022/03/02 00:13:28;;;;;;;;;;;7.20;99.90;;;;;;5091741;28;19915;-77
2022/03/02 00:15:54;;;;;;;;;;;7.30;99.90;;;;;;5092417;28;20260;-78
2022/03/02 00:18:19;;;;;;;;;;;7.30;99.90;;;;;;5091479;28;19908;-78
2022/03/02 00:20:45;;;;;;;;;;;7.20;99.90;;;;;;5092368;28;19916;-78
2022/03/02 00:23:10;;;;;;;;;;;7.20;99.90;;;;;;5092143;28;20378;-76
2022/03/02 00:25:36;;;;;;;;;;;7.20;99.90;;;;;;5091946;28;19912;-78
2022/03/02 00:28:02;;;;;;;;;;;7.20;99.90;;;;;;5092419;28;19986;-78
2022/03/02 00:30:28;;;;;;;;;;;7.20;99.90;;;;;;5091676;28;19953;-78
2022/03/02 00:32:54;;;;;;;;;;;7.20;99.90;;;;;;5091951;28;19912;-78
2022/03/02 00:35:20;;;;;;;;;;;7.10;99.90;;;;;;5092103;28;19908;-77
2022/03/02 00:37:46;;;;;;;;;;;7.10;99.90;;;;;;5091851;28;19962;-78
2022/03/02 00:40:12;;;;;;;;;;;7.00;99.90;;;;;;5091570;28;20280;-76
2022/03/02 00:42:38;;;;;;;;;;;7.00;99.90;;;;;;5090706;28;19912;-78
2022/03/02 00:45:04;;;;;;;;;;;6.90;99.90;;;;;;5092200;28;19999;-79
2022/03/02 00:47:29;;;;;;;;;;;6.80;99.90;;;;;;5091374;28;19908;-78
2022/03/02 00:49:55;;;;;;;;;;;6.80;99.90;;;;;;5092083;28;20360;-78
2022/03/02 00:52:21;;;;;;;;;;;6.70;99.90;;;;;;5091712;28;20022;-78
2022/03/02 00:54:46;;;;;;;;;;;6.70;99.90;;;;;;5095918;28;20420;-77
2022/03/02 00:57:12;;;;;;;;;;;6.70;99.90;;;;;;5108994;28;19931;-76
2022/03/02 00:59:38;;;;;;;;;;;6.70;99.90;;;;;;5101357;28;19908;-78
2022/03/02 01:02:03;;;;;;;;;;;6.70;99.90;;;;;;5095355;28;19912;-78
2022/03/02 01:04:29;;;;;;;;;;;6.70;99.90;;;;;;5094840;28;19912;-78
2022/03/02 01:06:54;;;;;;;;;;;6.70;99.90;;;;;;5095797;28;19908;-77
2022/03/02 01:09:20;;;;;;;;;;;6.70;99.90;;;;;;5094956;28;20277;-78
2022/03/02 01:11:46;;;;;;;;;;;6.70;99.90;;;;;;5095406;28;20379;-78
2022/03/02 01:14:11;;;;;;;;;;;6.70;99.90;;;;;;5094988;28;19920;-77
2022/03/02 01:16:37;;;;;;;;;;;6.70;99.90;;;;;;5095115;28;20317;-77
2022/03/02 01:19:03;;;;;;;;;;;6.70;99.90;;;;;;5093549;28;19915;-78
2022/03/02 01:21:29;;;;;;;;;;;6.80;99.90;;;;;;5094331;28;19911;-78
2022/03/02 01:23:58;;;;;;;;;;;6.80;99.90;;;;;;5095651;28;19963;-78
2022/03/02 01:26:26;;;;;;;;;;;6.90;99.90;;;;;;5105946;28;19935;-78
2022/03/02 01:28:55;;;;;;;;;;;6.90;99.90;;;;;;5100097;28;19912;-78
2022/03/02 01:31:24;;;;;;;;;;;6.90;99.90;;;;;;5094183;28;20003;-78
2022/03/02 01:33:50;;;;;;;;;;;7.00;99.90;;;;;;5095116;28;19938;-78
2022/03/02 01:36:17;;;;;;;;;;;7.00;99.90;;;;;;5094459;28;19908;-77
2022/03/02 01:38:42;;;;;;;;;;;7.00;99.90;;;;;;5094879;28;19908;-78
2022/03/02 01:41:09;;;;;;;;;;;7.00;99.90;;;;;;5094867;28;19977;-78
2022/03/02 01:43:34;;;;;;;;;;;7.00;99.90;;;;;;5094147;28;19912;-78
2022/03/02 01:46:00;;;;;;;;;;;7.00;99.90;;;;;;5094590;28;19908;-78
2022/03/02 01:48:25;;;;;;;;;;;7.00;99.90;;;;;;5094193;28;20023;-78
2022/03/02 01:50:51;;;;;;;;;;;7.00;99.90;;;;;;5094646;28;19912;-78
2022/03/02 01:53:17;;;;;;;;;;;7.00;99.90;;;;;;5094850;28;19915;-77
2022/03/02 01:55:43;;;;;;;;;;;7.00;99.90;;;;;;5095498;28;19908;-77
2022/03/02 01:58:09;;;;;;;;;;;7.00;99.90;;;;;;5095422;28;19908;-77
2022/03/02 02:00:36;;;;;;;;;;;7.10;99.90;;;;;;5093909;28;20318;-77
2022/03/02 02:03:02;;;;;;;;;;;7.10;99.90;;;;;;5094782;28;20264;-78
2022/03/02 02:05:27;;;;;;;;;;;7.10;99.90;;;;;;5094352;28;19912;-77
2022/03/02 02:07:53;;;;;;;;;;;7.10;99.90;;;;;;5095278;28;20404;-77
2022/03/02 02:10:19;;;;;;;;;;;7.10;99.90;;;;;;5094465;28;19908;-78
2022/03/02 02:12:44;;;;;;;;;;;7.00;99.90;;;;;;5095351;28;19918;-77
2022/03/02 02:15:10;;;;;;;;;;;7.00;99.90;;;;;;5107054;28;19940;-78
2022/03/02 02:17:36;;;;;;;;;;;6.90;99.90;;;;;;5094147;28;19915;-78
2022/03/02 02:20:03;;;;;;;;;;;7.00;99.90;;;;;;5093656;28;19912;-78
2022/03/02 02:22:28;;;;;;;;;;;7.00;99.90;;;;;;5094215;28;19934;-78
2022/03/02 02:24:54;;;;;;;;;;;6.90;99.90;;;;;;5095005;28;20360;-78
2022/03/02 02:27:19;;;;;;;;;;;6.90;99.90;;;;;;5094226;28;19912;-77
2022/03/02 02:29:47;;;;;;;;;;;7.00;99.90;;;;;;5094888;28;19915;-78
2022/03/02 02:32:13;;;;;;;;;;;6.90;99.90;;;;;;5094249;28;19908;-78
2022/03/02 02:34:40;;;;;;;;;;;7.00;99.90;;;;;;5094042;28;20269;-78
2022/03/02 02:37:06;;;;;;;;;;;7.00;99.90;;;;;;5094643;28;19954;-78
2022/03/02 02:39:32;;;;;;;;;;;7.00;99.90;;;;;;5093935;28;20010;-78
2022/03/02 02:42:07;;;;;;;;;;;7.10;99.90;;;;;;5094167;28;19999;-78
2022/03/02 02:44:34;;;;;;;;;;;7.00;99.90;;;;;;5093849;28;20273;-78
2022/03/02 02:47:00;;;;;;;;;;;7.00;99.90;;;;;;5094147;28;19914;-78
2022/03/02 02:49:26;;;;;;;;;;;7.00;99.90;;;;;;5093444;28;19908;-78
2022/03/02 02:51:53;;;;;;;;;;;7.10;99.90;;;;;;5094308;28;19919;-78
2022/03/02 02:54:20;;;;;;;;;;;7.10;99.90;;;;;;5093807;28;19908;-76
2022/03/02 02:56:46;;;;;;;;;;;7.10;99.90;;;;;;5094081;28;19920;-78
2022/03/02 02:59:11;;;;;;;;;;;7.10;99.90;;;;;;5092334;28;20257;-78
2022/03/02 03:01:37;;;;;;;;;;;7.10;99.90;;;;;;5093564;28;19912;-78
2022/03/02 03:04:03;;;;;;;;;;;7.20;99.90;;;;;;5093719;28;19911;-78
2022/03/02 03:06:29;;;;;;;;;;;7.20;99.90;;;;;;5093552;28;19912;-78
2022/03/02 03:08:55;;;;;;;;;;;7.20;99.90;;;;;;5093802;28;19916;-78
2022/03/02 03:11:21;;;;;;;;;;;7.20;99.90;;;;;;5093398;28;19914;-76
2022/03/02 03:13:46;;;;;;;;;;;7.20;99.90;;;;;;5093907;28;19912;-78
2022/03/02 03:16:12;;;;;;;;;;;7.20;99.90;;;;;;5092996;28;19915;-78
2022/03/02 03:18:37;;;;;;;;;;;7.20;99.90;;;;;;5093059;28;19908;-78
2022/03/02 03:21:03;;;;;;;;;;;7.20;99.90;;;;;;5093785;28;19908;-78
2022/03/02 03:23:29;;;;;;;;;;;7.20;99.90;;;;;;5093158;28;19912;-77
2022/03/02 03:25:54;;;;;;;;;;;7.20;99.90;;;;;;5093698;28;19920;-78
2022/03/02 03:28:20;;;;;;;;;;;7.30;99.90;;;;;;5093559;28;20340;-76
2022/03/02 03:30:46;;;;;;;;;;;7.20;99.90;;;;;;5107774;28;19908;-77
2022/03/02 03:33:11;;;;;;;;;;;7.30;99.90;;;;;;5095185;28;19921;-78
2022/03/02 03:35:37;;;;;;;;;;;7.30;99.90;;;;;;5093113;28;19908;-79
2022/03/02 03:38:03;;;;;;;;;;;7.30;99.90;;;;;;5093720;28;19939;-78
2022/03/02 03:40:28;;;;;;;;;;;7.30;99.90;;;;;;5092748;28;19946;-77
2022/03/02 03:42:55;;;;;;;;;;;7.20;99.90;;;;;;5093385;28;19959;-77
2022/03/02 03:45:20;;;;;;;;;;;7.30;99.90;;;;;;5093337;28;19966;-78
2022/03/02 03:47:46;;;;;;;;;;;7.30;99.90;;;;;;5092899;28;19912;-78
2022/03/02 03:50:12;;;;;;;;;;;7.30;99.90;;;;;;5093352;28;19912;-79
2022/03/02 03:52:38;;;;;;;;;;;7.30;99.90;;;;;;5092751;28;19951;-78
2022/03/02 03:55:04;;;;;;;;;;;7.30;99.90;;;;;;5093141;28;19935;-78
2022/03/02 03:57:29;;;;;;;;;;;7.30;99.90;;;;;;5092848;28;19920;-79
2022/03/02 03:59:55;;;;;;;;;;;7.30;99.90;;;;;;5093228;28;19908;-78
2022/03/02 04:02:21;;;;;;;;;;;7.30;99.90;;;;;;5093165;28;19918;-79
2022/03/02 04:04:46;;;;;;;;;;;7.40;99.90;;;;;;5092584;28;19919;-78
2022/03/02 04:07:12;;;;;;;;;;;7.30;99.90;;;;;;5093031;28;20254;-79
2022/03/02 04:09:37;;;;;;;;;;;7.30;99.90;;;;;;5092527;28;19915;-78
2022/03/02 04:12:03;;;;;;;;;;;7.30;99.90;;;;;;5093255;28;19908;-78
2022/03/02 04:14:29;;;;;;;;;;;7.40;99.90;;;;;;5092401;28;19908;-78
2022/03/02 04:16:54;;;;;;;;;;;7.30;99.90;;;;;;5093039;28;20005;-78
2022/03/02 04:19:20;;;;;;;;;;;7.30;99.90;;;;;;5093111;28;20348;-78
2022/03/02 04:21:45;;;;;;;;;;;7.40;99.90;;;;;;5092354;28;19916;-78
2022/03/02 04:24:11;;;;;;;;;;;7.30;99.90;;;;;;5092728;28;20014;-78
2022/03/02 04:26:37;;;;;;;;;;;7.40;99.90;;;;;;5092855;28;19908;-78
2022/03/02 04:29:02;;;;;;;;;;;7.40;99.90;;;;;;5097112;28;19962;-78
2022/03/02 04:31:28;;;;;;;;;;;7.40;99.90;;;;;;5096573;28;19912;-78
2022/03/02 04:33:53;;;;;;;;;;;7.40;99.90;;;;;;5096855;28;19908;-78
2022/03/02 04:36:19;;;;;;;;;;;7.40;99.90;;;;;;5096883;28;19908;-78
2022/03/02 04:38:44;;;;;;;;;;;7.40;99.90;;;;;;5096397;28;19995;-78
2022/03/02 04:41:10;;;;;;;;;;;7.40;99.90;;;;;;5097173;28;19908;-78
2022/03/02 04:43:36;;;;;;;;;;;7.40;99.90;;;;;;5096170;28;20434;-78
2022/03/02 04:46:02;;;;;;;;;;;7.40;99.90;;;;;;5106031;28;19919;-78
2022/03/02 04:48:28;;;;;;;;;;;7.40;99.90;;;;;;5102958;28;19915;-76
2022/03/02 04:50:53;;;;;;;;;;;7.40;99.90;;;;;;5096666;28;19991;-79
2022/03/02 04:53:23;;;;;;;;;;;7.40;99.90;;;;;;5096858;28;19968;-79
2022/03/02 04:55:49;;;;;;;;;;;7.30;99.90;;;;;;5104518;28;19941;-78
2022/03/02 04:58:14;;;;;;;;;;;7.30;99.90;;;;;;5106585;28;20010;-79
2022/03/02 05:00:40;;;;;;;;;;;7.30;99.90;;;;;;5095905;28;19908;-79
2022/03/02 05:03:06;;;;;;;;;;;7.30;99.90;;;;;;5096078;28;19912;-79
2022/03/02 05:05:33;;;;;;;;;;;7.20;99.90;;;;;;5095510;28;20002;-78
2022/03/02 05:07:58;;;;;;;;;;;7.20;99.90;;;;;;5096236;28;19915;-79
2022/03/02 05:10:24;;;;;;;;;;;7.20;99.90;;;;;;5095184;28;19908;-79
2022/03/02 05:12:50;;;;;;;;;;;7.20;99.90;;;;;;5095559;28;19909;-79
2022/03/02 05:15:16;;;;;;;;;;;7.10;99.90;;;;;;5096275;28;20261;-80
2022/03/02 05:17:42;;;;;;;;;;;7.10;99.90;;;;;;5095414;28;20007;-79
2022/03/02 05:20:09;;;;;;;;;;;7.10;99.90;;;;;;5096144;28;19912;-80
2022/03/02 05:22:35;;;;;;;;;;;7.10;99.90;;;;;;5094275;28;19912;-79
2022/03/02 05:25:01;;;;;;;;;;;7.10;99.90;;;;;;5096320;28;19912;-80
2022/03/02 05:27:26;;;;;;;;;;;7.10;99.90;;;;;;5095878;28;19915;-80
2022/03/02 05:29:52;;;;;;;;;;;7.00;99.90;;;;;;5094753;28;19908;-80
2022/03/02 05:32:18;;;;;;;;;;;7.10;99.90;;;;;;5095581;28;19908;-80
2022/03/02 05:34:43;;;;;;;;;;;7.10;99.90;;;;;;5095061;28;20361;-80
2022/03/02 05:37:09;;;;;;;;;;;7.10;99.90;;;;;;5095664;28;19915;-80
2022/03/02 05:39:34;;;;;;;;;;;7.00;99.90;;;;;;5093977;28;19908;-78
2022/03/02 05:42:00;;;;;;;;;;;7.00;99.90;;;;;;5094082;28;20389;-79
2022/03/02 05:44:26;;;;;;;;;;;7.00;99.90;;;;;;5095226;28;19970;-80
2022/03/02 05:46:51;;;;;;;;;;;7.00;99.90;;;;;;5094694;28;19925;-79
2022/03/02 05:49:17;;;;;;;;;;;7.00;99.90;;;;;;5095228;28;19908;-79
2022/03/02 05:51:43;;;;;;;;;;;7.00;99.90;;;;;;5094900;28;20279;-79
2022/03/02 05:54:09;;;;;;;;;;;7.00;99.90;;;;;;5095178;28;19994;-79
2022/03/02 05:56:37;;;;;;;;;;;6.90;99.90;;;;;;5094702;28;19920;-78
2022/03/02 05:59:03;;;;;;;;;;;7.00;99.90;;;;;;5095404;28;19999;-78
2022/03/02 06:01:29;;;;;;;;;;;7.00;99.90;;;;;;5097832;28;19908;-79
2022/03/02 06:03:55;;;;;;;;;;;7.00;99.90;;;;;;5103025;28;19965;-78
2022/03/02 06:06:20;;;;;;;;;;;6.90;99.90;;;;;;5095172;28;19971;-78
2022/03/02 06:08:46;;;;;;;;;;;6.90;99.90;;;;;;5094579;28;19908;-78
2022/03/02 06:11:11;;;;;;;;;;;6.90;99.90;;;;;;5095143;28;19912;-79
2022/03/02 06:13:37;;;;;;;;;;;6.90;99.90;;;;;;5094294;28;19914;-78
2022/03/02 06:16:03;;;;;;;;;;;6.90;99.90;;;;;;5095302;28;19908;-78
2022/03/02 06:18:29;;;;;;;;;;;6.90;99.90;;;;;;5095002;28;19916;-79
2022/03/02 06:21:01;;;;;;;;;;;6.90;99.90;;;;;;5094397;28;19912;-79
2022/03/02 06:23:28;;;;;;;;;;;6.90;99.90;;;;;;5094475;28;20376;-79
2022/03/02 06:25:54;;;;;;;;;;;6.90;99.90;;;;;;5094228;28;19937;-78
2022/03/02 06:28:19;;;;;;;;;;;6.90;99.90;;;;;;5093947;28;19908;-78
2022/03/02 06:30:45;;;;;;;;;;;6.90;99.90;;;;;;5096858;28;19995;-78
2022/03/02 06:33:12;;;;;;;;;;;6.90;99.90;;;;;;5096568;28;19993;-78
2022/03/02 06:35:38;;;;;;;;;;;6.90;99.90;;;;;;5093708;28;19999;-78
2022/03/02 06:38:03;;;;;;;;;;;7.00;99.90;;;;;;5094410;28;20276;-79
2022/03/02 06:40:29;;;;;;;;;;;6.90;99.90;;;;;;5094536;28;20346;-79
2022/03/02 06:42:59;;;;;;;;;;;6.90;99.90;;;;;;5093743;28;19994;-78
2022/03/02 06:45:48;;;;;;;;;;;6.90;99.90;;;;;;5094225;28;19912;-78
2022/03/02 06:48:19;;;;;;;;;;;6.90;99.90;;;;;;5088233;28;20223;-79
2022/03/02 06:50:45;;;;;;;;;;;6.90;99.90;;;;;;5093729;28;19915;-79
2022/03/02 06:53:12;;;;;;;;;;;7.00;99.90;;;;;;5094138;28;19914;-79
2022/03/02 06:55:39;;;;;;;;;;;7.00;99.90;;;;;;5093569;28;19908;-77
2022/03/02 06:58:06;;;;;;;;;;;7.00;99.90;;;;;;5093928;28;19908;-79
2022/03/02 07:00:32;;;;;;;;;;;7.00;99.90;;;;;;5095052;28;19919;-79
2022/03/02 07:03:04;;;;;;;;;;;7.00;99.90;;;;;;5093364;28;19916;-79
2022/03/02 07:05:29;;;;;;;;;;;7.00;99.90;;;;;;5094039;28;19912;-81
2022/03/02 07:07:55;;;;;;;;;;;7.00;99.90;;;;;;5092047;28;19963;-81
2022/03/02 07:10:21;;;;;;;;;;;7.00;99.90;;;;;;5094343;28;19908;-80
2022/03/02 07:12:46;;;;;;;;;;;7.00;99.90;;;;;;5093276;28;20269;-81
2022/03/02 07:15:12;;;;;;;;;;;7.00;99.90;;;;;;5093645;28;19947;-81
2022/03/02 07:17:39;;;;;;;;;;;7.00;99.90;;;;;;5093623;28;19908;-78
2022/03/02 07:20:06;;;;;;;;;;;7.00;99.90;;;;;;5106661;28;19908;-79
2022/03/02 07:22:36;;;;;;;;;;;7.00;99.90;;;;;;5094691;28;19977;-78
2022/03/02 07:25:06;;;;;;;;;;;7.00;99.90;;;;;;5093147;28;19922;-78
2022/03/02 07:27:35;;;;;;;;;;;7.00;99.90;;;;;;5094002;28;19912;-78
2022/03/02 07:30:01;;;;;;;;;;;7.00;99.90;;;;;;5092758;28;20234;-79
2022/03/02 07:32:31;;;;;;;;;;;7.00;99.90;;;;;;5091615;28;20314;-79
2022/03/02 07:34:58;;;;;;;;;;;7.00;99.90;;;;;;5092404;28;19908;-78
2022/03/02 07:37:24;;;;;;;;;;;7.00;99.90;;;;;;5093011;28;20357;-78
2022/03/02 07:39:50;;;;;;;;;;;7.00;99.90;;;;;;5092807;28;19915;-78
2022/03/02 07:42:15;;;;;;;;;;;7.10;99.90;;;;;;5093022;28;19912;-78
2022/03/02 07:44:44;;;;;;;;;;;7.00;99.90;;;;;;5092641;28;19935;-77
2022/03/02 07:47:09;;;;;;;;;;;7.00;99.90;;;;;;5092932;28;20000;-78
2022/03/02 07:49:35;;;;;;;;;;;7.00;99.90;;;;;;5093364;28;19944;-78
2022/03/02 07:52:02;;;;;;;;;;;7.10;99.90;;;;;;5092254;28;19973;-77
2022/03/02 07:54:28;;;;;;;;;;;7.10;99.90;;;;;;5091885;28;20274;-77
2022/03/02 07:56:55;;;;;;;;;;;7.10;99.90;;;;;;5092505;28;19999;-77
2022/03/02 07:59:21;;;;;;;;;;;7.10;99.90;;;;;;5092886;28;19908;-77
2022/03/02 08:01:46;;;;;;;;;;;7.10;99.90;;;;;;5091627;28;20399;-77
2022/03/02 08:04:12;;;;;;;;;;;7.10;99.90;;;;;;5092969;28;19959;-77
2022/03/02 08:06:39;;;;;;;;;;;7.10;99.90;;;;;;5092799;28;20011;-77
2022/03/02 08:09:05;;;;;;;;;;;7.10;99.90;;;;;;5091978;28;20408;-77
2022/03/02 08:11:37;;;;;;;;;;;7.10;99.90;;;;;;5092861;28;20398;-77
2022/03/02 08:14:03;;;;;;;;;;;7.10;99.90;;;;;;5091891;28;19908;-78
2022/03/02 08:16:29;;;;;;;;;;;7.10;99.90;;;;;;5092823;28;20238;-77
2022/03/02 08:18:56;;;;;;;;;;;7.20;99.90;;;;;;5091798;28;19915;-77
2022/03/02 08:21:22;;;;;;;;;;;7.20;99.90;;;;;;5092560;28;19919;-77
2022/03/02 08:23:49;;;;;;;;;;;7.20;99.90;;;;;;5091939;28;19912;-76
2022/03/02 08:26:18;;;;;;;;;;;7.20;99.90;;;;;;5092094;28;19915;-77
2022/03/02 08:28:45;;;;;;;;;;;7.20;99.90;;;;;;5091833;28;19908;-76
2022/03/02 08:31:11;;;;;;;;;;;7.30;99.90;;;;;;5092637;28;19931;-77
2022/03/02 08:33:37;;;;;;;;;;;7.30;99.90;;;;;;5092707;28;19998;-77
2022/03/02 08:36:03;;;;;;;;;;;7.30;99.90;;;;;;5097974;28;19915;-77
2022/03/02 08:38:29;;;;;;;;;;;7.40;99.90;;;;;;5094680;28;19908;-77
2022/03/02 08:40:55;;;;;;;;;;;7.40;99.90;;;;;;5091837;28;19908;-77
2022/03/02 08:43:21;;;;;;;;;;;7.40;99.90;;;;;;5092750;28;19913;-77
2022/03/02 08:45:47;;;;;;;;;;;7.40;99.90;;;;;;5084787;28;20390;-77
2022/03/02 08:48:17;;;;;;;;;;;7.50;99.90;;;;;;5093347;28;19994;-78
2022/03/02 08:50:43;;;;;;;;;;;7.50;99.90;;;;;;5092216;28;19912;-77
2022/03/02 08:53:12;;;;;;;;;;;7.50;99.90;;;;;;5091468;28;20003;-78
2022/03/02 08:55:39;;;;;;;;;;;7.50;99.90;;;;;;5092155;28;19976;-76
2022/03/02 08:58:05;;;;;;;;;;;7.50;99.90;;;;;;5091990;28;19979;-77
2022/03/02 09:00:31;;;;;;;;;;;7.50;99.90;;;;;;5099579;28;20356;-79
2022/03/02 09:02:58;;;;;;;;;;;7.50;99.90;;;;;;5093530;28;20036;-78
2022/03/02 09:05:26;;;;;;;;;;;7.60;99.90;;;;;;5093814;28;20011;-77
2022/03/02 09:07:52;;;;;;;;;;;7.60;99.90;;;;;;5091776;28;20280;-78
2022/03/02 09:10:17;;;;;;;;;;;7.60;99.90;;;;;;5091136;28;19909;-78
2022/03/02 09:12:44;;;;;;;;;;;7.60;99.90;;;;;;5090854;28;19908;-79
2022/03/02 09:15:09;;;;;;;;;;;7.60;99.90;;;;;;5094135;28;19954;-78
2022/03/02 09:17:35;;;;;;;;;;;7.60;99.90;;;;;;5095542;28;20325;-78
2022/03/02 09:20:01;;;;;;;;;;;7.60;99.90;;;;;;5094863;28;20376;-77
2022/03/02 09:22:27;;;;;;;;;;;7.60;99.90;;;;;;5095527;28;20018;-78
2022/03/02 09:24:53;;;;;;;;;;;7.60;99.90;;;;;;5092066;28;19920;-77
2022/03/02 09:27:19;;;;;;;;;;;7.60;99.90;;;;;;5102862;28;19908;-77
2022/03/02 09:29:46;;;;;;;;;;;7.60;99.90;;;;;;5095158;28;19915;-77
2022/03/02 09:32:13;;;;;;;;;;;7.60;99.90;;;;;;5094886;28;19912;-76
2022/03/02 09:34:40;;;;;;;;;;;7.60;99.90;;;;;;5094983;28;20417;-77
2022/03/02 09:37:09;;;;;;;;;;;7.60;99.90;;;;;;5094241;28;20681;-77
2022/03/02 09:39:34;;;;;;;;;;;7.60;99.90;;;;;;5095193;28;19908;-77
2022/03/02 09:42:02;;;;;;;;;;;7.70;99.90;;;;;;5094911;28;19973;-76
2022/03/02 09:44:32;;;;;;;;;;;7.70;99.90;;;;;;5095218;28;20381;-77
2022/03/02 09:47:00;;;;;;;;;;;7.70;99.90;;;;;;5094611;28;19908;-77
2022/03/02 09:49:29;;;;;;;;;;;7.70;99.90;;;;;;5094446;28;19994;-77
2022/03/02 09:52:06;;;;;;;;;;;7.70;99.90;;;;;;5094520;28;19916;-77
2022/03/02 09:54:36;;;;;;;;;;;7.70;99.90;;;;;;5094820;28;19993;-77
2022/03/02 09:57:03;;;;;;;;;;;7.70;99.90;;;;;;5094566;28;19974;-77
2022/03/02 09:59:32;;;;;;;;;;;7.70;99.90;;;;;;5094719;28;19915;-77
2022/03/02 10:02:00;;;;;;;;;;;7.70;99.90;;;;;;5094106;28;20027;-79
2022/03/02 10:04:28;;;;;;;;;;;7.80;99.90;;;;;;5094766;28;19923;-79
2022/03/02 10:07:26;;;;;;;;;;;7.80;99.90;;;;;;5094795;28;19914;-78
2022/03/02 10:09:47;;;;;;;;;;;7.70;99.90;;;;;;5093909;28;19961;-77
2022/03/02 10:12:14;;;;;;;;;;;7.80;99.90;;;;;;5094280;28;19908;-77
2022/03/02 10:14:41;;;;;;;;;;;7.80;99.90;;;;;;5093670;28;19908;-77
2022/03/02 10:17:10;;;;;;;;;;;7.80;99.90;;;;;;5094040;28;19934;-77
2022/03/02 10:19:37;;;;;;;;;;;7.80;99.90;;;;;;5094821;28;19951;-78
2022/03/02 10:22:06;;;;;;;;;;;7.80;99.90;;;;;;5094493;28;19912;-78
2022/03/02 10:24:34;;;;;;;;;;;7.80;99.90;;;;;;5096693;28;20369;-77
2022/03/02 10:27:04;;;;;;;;;;;7.80;99.90;;;;;;5093959;28;19908;-77
2022/03/02 10:29:31;;;;;;;;;;;7.80;99.90;;;;;;5094438;28;19973;-77
2022/03/02 10:32:26;;;;;;;;;;;7.80;99.90;;;;;;5093211;28;20270;-77
2022/03/02 10:34:57;;;;;;;;;;;7.80;99.90;;;;;;5084849;28;19916;-77
2022/03/02 10:37:30;;;;;;;;;;;7.90;99.90;;;;;;5093894;28;19916;-78
2022/03/02 10:40:12;;;;;;;;;;;7.90;99.90;;;;;;5093139;28;19908;-77
2022/03/02 10:42:38;;;;;;;;;;;7.90;99.90;;;;;;5093631;28;19999;-77
2022/03/02 10:45:09;;;;;;;;;;;7.90;99.90;;;;;;5094323;28;19983;-76
2022/03/02 10:47:42;;;;;;;;;;;7.90;99.90;;;;;;5093157;28;20000;-77
2022/03/02 10:50:08;;;;;;;;;;;7.90;99.90;;;;;;5092555;28;20322;-77
2022/03/02 10:52:39;;;;;;;;;;;8.00;99.90;;;;;;5093447;28;20012;-77
2022/03/02 10:55:06;;;;;;;;;;;8.00;99.90;;;;;;5092655;28;19957;-77
2022/03/02 10:57:33;;;;;;;;;;;8.00;99.90;;;;;;5093127;28;19928;-77
2022/03/02 11:00:01;;;;;;;;;;;8.00;99.90;;;;;;5092589;28;19999;-77
2022/03/02 11:02:27;;;;;;;;;;;7.90;99.90;;;;;;5092842;28;19978;-79
2022/03/02 11:04:54;;;;;;;;;;;8.00;99.90;;;;;;5092770;28;19912;-80
2022/03/02 11:07:20;;;;;;;;;;;8.00;99.90;;;;;;5093971;28;20345;-79
2022/03/02 11:09:50;;;;;;;;;;;8.00;99.90;;;;;;5093557;28;19908;-79
2022/03/02 11:12:20;;;;;;;;;;;8.10;99.90;;;;;;5093337;28;19961;-78
2022/03/02 11:14:56;;;;;;;;;;;8.10;99.90;;;;;;5091915;28;19909;-77
2022/03/02 11:17:22;;;;;;;;;;;8.10;99.90;;;;;;5093983;28;19926;-77
2022/03/02 11:19:48;;;;;;;;;;;8.10;99.90;;;;;;5092655;28;19914;-77
2022/03/02 11:22:16;;;;;;;;;;;8.10;99.90;;;;;;5092612;28;19970;-78
2022/03/02 11:24:42;;;;;;;;;;;8.10;99.90;;;;;;5091485;28;19916;-77
2022/03/02 11:27:23;;;;;;;;;;;8.20;99.90;;;;;;5092305;28;20173;-77
2022/03/02 11:29:49;;;;;;;;;;;8.20;99.90;;;;;;5092037;28;20003;-77
2022/03/02 11:32:15;;;;;;;;;;;8.20;99.90;;;;;;5092433;28;19995;-78
2022/03/02 11:34:44;;;;;;;;;;;8.20;99.90;;;;;;5093183;28;19915;-77
2022/03/02 11:37:10;;;;;;;;;;;8.20;99.90;;;;;;5092353;28;20353;-78
2022/03/02 11:39:41;;;;;;;;;;;8.20;99.90;;;;;;5093332;28;20003;-77
2022/03/02 11:42:07;;;;;;;;;;;8.20;99.90;;;;;;5092808;28;19912;-78
2022/03/02 11:44:34;;;;;;;;;;;8.20;99.90;;;;;;5091643;28;19916;-77
2022/03/02 11:47:08;;;;;;;;;;;8.20;99.90;;;;;;5091603;28;19961;-77
2022/03/02 11:49:40;;;;;;;;;;;8.30;99.90;;;;;;5092325;28;20369;-78
2022/03/02 11:52:09;;;;;;;;;;;8.30;99.90;;;;;;5090959;28;20399;-78
2022/03/02 11:54:46;;;;;;;;;;;8.30;99.90;;;;;;5090942;28;19991;-77
2022/03/02 11:57:13;;;;;;;;;;;8.30;99.90;;;;;;5090342;28;19924;-79
2022/03/02 11:59:39;;;;;;;;;;;8.30;99.90;;;;;;5091391;28;20254;-79
2022/03/02 12:02:21;;;;;;;;;;;8.30;99.90;;;;;;5090268;28;20327;-80
2022/03/02 12:04:59;;;;;;;;;;;8.30;99.90;;;;;;5090754;28;19935;-79
2022/03/02 12:07:25;;;;;;;;;;;8.30;99.90;;;;;;5092678;28;19990;-79
2022/03/02 12:09:50;;;;;;;;;;;8.30;99.90;;;;;;5092010;28;19947;-79
2022/03/02 12:12:18;;;;;;;;;;;8.40;99.90;;;;;;5091243;28;19908;-79
2022/03/02 12:14:45;;;;;;;;;;;8.40;99.90;;;;;;5092301;28;19954;-79
2022/03/02 12:17:20;;;;;;;;;;;8.50;99.90;;;;;;5091275;28;19912;-79
2022/03/02 12:19:46;;;;;;;;;;;8.50;99.90;;;;;;5092083;28;19908;-79
2022/03/02 12:22:13;;;;;;;;;;;8.60;99.90;;;;;;5095949;28;19920;-79
2022/03/02 12:24:38;;;;;;;;;;;8.70;99.90;;;;;;5090701;28;19919;-79
2022/03/02 12:27:08;;;;;;;;;;;8.80;99.90;;;;;;5096241;28;20273;-78
2022/03/02 12:29:35;;;;;;;;;;;8.90;99.90;;;;;;5110318;28;19911;-78
2022/03/02 12:32:03;;;;;;;;;;;8.90;99.90;;;;;;5090851;28;20016;-78
2022/03/02 12:34:31;;;;;;;;;;;8.90;99.90;;;;;;5091538;28;20293;-79
2022/03/02 12:36:57;;;;;;;;;;;9.00;99.90;;;;;;5091772;28;19915;-78
2022/03/02 12:39:22;;;;;;;;;;;9.00;99.90;;;;;;5092091;28;19912;-78
2022/03/02 12:41:48;;;;;;;;;;;9.00;99.90;;;;;;5092176;28;19907;-78
2022/03/02 12:44:14;;;;;;;;;;;9.00;99.90;;;;;;5090897;28;19912;-78
2022/03/02 12:46:39;;;;;;;;;;;9.00;99.90;;;;;;5091767;28;19962;-78
2022/03/02 12:49:06;;;;;;;;;;;9.00;99.90;;;;;;5094046;28;19969;-78
2022/03/02 12:51:32;;;;;;;;;;;9.00;99.90;;;;;;5096075;28;19916;-78
2022/03/02 12:53:58;;;;;;;;;;;9.00;99.90;;;;;;5095627;28;19908;-78
2022/03/02 12:56:24;;;;;;;;;;;9.00;99.90;;;;;;5094019;28;19920;-78
2022/03/02 12:58:49;;;;;;;;;;;9.10;99.90;;;;;;5095510;28;19915;-77
2022/03/02 13:01:15;;;;;;;;;;;9.00;99.90;;;;;;5094994;28;19908;-77
2022/03/02 13:03:50;;;;;;;;;;;9.00;99.90;;;;;;5095506;28;20280;-77
2022/03/02 13:06:21;;;;;;;;;;;9.00;99.90;;;;;;5094860;28;20011;-77
2022/03/02 13:08:49;;;;;;;;;;;9.10;99.90;;;;;;5093464;28;20471;-78
2022/03/02 13:11:25;;;;;;;;;;;9.00;99.90;;;;;;5094347;28;19908;-79
2022/03/02 13:13:51;;;;;;;;;;;9.10;99.90;;;;;;5094659;28;19962;-77
2022/03/02 13:16:24;;;;;;;;;;;9.10;99.90;;;;;;5094503;28;19947;-78
2022/03/02 13:18:51;;;;;;;;;;;9.10;99.90;;;;;;5095112;28;20458;-78
2022/03/02 13:21:18;;;;;;;;;;;9.10;99.90;;;;;;5095021;28;19986;-78
2022/03/02 13:24:04;;;;;;;;;;;9.20;99.90;;;;;;5095946;28;19912;-78
2022/03/02 13:26:30;;;;;;;;;;;9.20;99.90;;;;;;5094931;28;19960;-77
2022/03/02 13:28:59;;;;;;;;;;;9.20;99.90;;;;;;5094272;28;19909;-77
2022/03/02 13:31:24;;;;;;;;;;;9.30;99.90;;;;;;5094834;28;19908;-77
2022/03/02 13:34:02;;;;;;;;;;;9.40;99.90;;;;;;5098509;28;19915;-76
2022/03/02 13:36:37;;;;;;;;;;;9.40;99.90;;;;;;5093939;28;19973;-77
2022/03/02 13:39:11;;;;;;;;;;;9.50;99.90;;;;;;5093621;28;19909;-77
2022/03/02 13:41:40;;;;;;;;;;;9.50;99.90;;;;;;5115294;28;19911;-77
2022/03/02 13:44:19;;;;;;;;;;;9.60;99.90;;;;;;5095353;28;19919;-77
2022/03/02 13:46:44;;;;;;;;;;;9.60;99.90;;;;;;5094532;28;19908;-77
2022/03/02 13:49:10;;;;;;;;;;;9.70;99.90;;;;;;5093941;28;20454;-77
2022/03/02 13:51:48;;;;;;;;;;;9.80;99.90;;;;;;5094601;28;19908;-77
2022/03/02 13:54:24;;;;;;;;;;;9.90;99.90;;;;;;5093980;28;19919;-77
2022/03/02 13:56:49;;;;;;;;;;;10.00;99.90;;;;;;5094299;28;19920;-77
2022/03/02 13:59:16;;;;;;;;;;;10.20;99.90;;;;;;5092612;28;19908;-77
2022/03/02 14:01:41;;;;;;;;;;;10.30;99.90;;;;;;5094330;28;19912;-77
2022/03/02 14:04:08;;;;;;;;;;;10.40;99.90;;;;;;5093613;28;19912;-76
2022/03/02 14:06:35;;;;;;;;;;;10.40;99.90;;;;;;5093884;28;20288;-76
2022/03/02 14:09:02;;;;;;;;;;;10.50;99.90;;;;;;5093479;28;19908;-77
2022/03/02 14:11:31;;;;;;;;;;;10.50;99.90;;;;;;5094592;28;19915;-77
2022/03/02 14:13:57;;;;;;;;;;;10.40;99.90;;;;;;5093664;28;19908;-76
2022/03/02 14:16:23;;;;;;;;;;;10.50;99.90;;;;;;5093891;28;19914;-76
2022/03/02 14:19:08;;;;;;;;;;;10.60;99.90;;;;;;5094188;28;19954;-77
2022/03/02 14:21:34;;;;;;;;;;;10.60;99.90;;;;;;5093466;28;19912;-77
2022/03/02 14:24:16;;;;;;;;;;;10.50;99.90;;;;;;5093316;28;19916;-77
2022/03/02 14:26:59;;;;;;;;;;;10.50;99.90;;;;;;5093784;28;20357;-78
2022/03/02 14:29:25;;;;;;;;;;;10.50;99.90;;;;;;5093620;28;19908;-75